createdAt,value
2023-03-28T00:02:52.930Z,18.80
2023-03-28T00:07:58.986Z,18.90
2023-03-28T00:13:05.022Z,18.90
2023-03-28T00:18:12.992Z,18.90
2023-03-28T00:23:19.691Z,19.00
2023-03-28T00:28:26.086Z,18.90
2023-03-28T00:33:36.214Z,18.90
2023-03-28T00:38:41.468Z,19.00
2023-03-28T00:43:49.531Z,18.90
2023-03-28T00:49:04.338Z,18.90
2023-03-28T00:54:15.160Z,18.90
2023-03-28T00:59:25.286Z,18.80
2023-03-28T01:04:51.042Z,18.90
2023-03-28T01:10:01.348Z,18.90
2023-03-28T01:15:08.396Z,18.90
2023-03-28T01:21:03.032Z,18.90
2023-03-28T01:26:18.729Z,19.10
2023-03-28T01:31:46.625Z,19.20
2023-03-28T01:37:16.412Z,19.40
2023-03-28T01:42:53.783Z,19.40
2023-03-28T01:48:24.711Z,19.40
2023-03-28T01:53:46.992Z,19.30
2023-03-28T01:59:05.414Z,19.20
2023-03-28T02:04:34.956Z,19.30
2023-03-28T02:09:43.594Z,19.10
2023-03-28T02:15:21.640Z,19.30
2023-03-28T02:20:52.260Z,19.40
2023-03-28T02:26:17.023Z,19.40
2023-03-28T02:31:48.318Z,19.70
2023-03-28T02:37:12.918Z,19.60
2023-03-28T02:42:34.397Z,19.40
2023-03-28T02:47:47.351Z,19.40
2023-03-28T02:53:16.550Z,19.60
2023-03-28T02:58:44.543Z,19.30
2023-03-28T03:03:52.665Z,19.20
2023-03-28T03:09:03.564Z,19.20
2023-03-28T03:14:09.669Z,19.20
2023-03-28T03:19:16.305Z,19.40
2023-03-28T03:24:23.746Z,19.50
2023-03-28T03:29:38.832Z,19.40
2023-03-28T03:34:52.552Z,19.40
2023-03-28T03:40:03.210Z,19.40
2023-03-28T03:45:14.035Z,19.40
2023-03-28T03:51:53.386Z,19.40
2023-03-28T03:56:45.614Z,19.60
2023-03-28T04:02:00.398Z,19.90
2023-03-28T04:07:31.514Z,20.00
2023-03-28T04:12:39.827Z,19.80
2023-03-28T04:18:06.244Z,19.80
2023-03-28T04:23:22.022Z,19.90
2023-03-28T04:28:33.213Z,20.20
2023-03-28T04:33:46.952Z,20.40
2023-03-28T04:39:00.661Z,20.30
2023-03-28T04:44:26.461Z,20.10
2023-03-28T04:49:41.814Z,19.90
2023-03-28T04:54:50.466Z,19.90
2023-03-28T05:00:02.606Z,19.90
2023-03-28T05:05:30.581Z,20.10
2023-03-28T05:10:40.453Z,20.30
2023-03-28T05:16:00.850Z,20.10
2023-03-28T05:21:27.546Z,20.30
2023-03-28T05:26:36.006Z,20.60
2023-03-28T05:31:45.718Z,20.60
2023-03-28T05:37:02.802Z,20.60
2023-03-28T05:42:18.073Z,20.80
2023-03-28T05:47:26.486Z,20.90
2023-03-28T05:52:33.328Z,20.80
2023-03-28T05:57:46.493Z,20.60
2023-03-28T06:02:56.638Z,20.50
2023-03-28T06:08:24.617Z,20.40
2023-03-28T06:13:36.171Z,20.30
2023-03-28T06:18:50.184Z,20.20
2023-03-28T06:24:00.212Z,20.10
2023-03-28T06:29:18.616Z,20.10
2023-03-28T06:34:29.275Z,20.10
2023-03-28T06:39:46.080Z,20.00
2023-03-28T06:44:53.094Z,19.90
2023-03-28T06:50:23.190Z,20.00
2023-03-28T06:55:33.375Z,20.00
2023-03-28T07:00:57.439Z,19.90
2023-03-28T07:06:16.654Z,20.20
2023-03-28T07:11:35.612Z,20.30
2023-03-28T07:16:46.854Z,20.30
2023-03-28T07:21:56.718Z,20.30
2023-03-28T07:27:24.875Z,20.60
2023-03-28T07:32:43.281Z,20.80
2023-03-28T07:38:03.015Z,20.80
2023-03-28T07:43:37.555Z,20.90
2023-03-28T07:49:09.724Z,21.00
2023-03-28T07:54:20.192Z,21.20
2023-03-28T07:59:33.277Z,21.10
2023-03-28T08:04:49.194Z,21.00
2023-03-28T08:10:05.188Z,20.90
2023-03-28T08:15:13.786Z,20.80
2023-03-28T08:20:21.859Z,20.80
2023-03-28T08:25:52.778Z,20.80
2023-03-28T08:31:04.307Z,21.00
2023-03-28T08:36:17.640Z,21.20
2023-03-28T08:41:47.285Z,21.00
2023-03-28T08:47:00.359Z,20.80
2023-03-28T08:52:08.834Z,20.60
2023-03-28T08:57:34.967Z,20.50
2023-03-28T09:02:41.885Z,20.60
2023-03-28T09:07:58.215Z,20.60
2023-03-28T09:13:06.269Z,20.50
2023-03-28T09:18:36.002Z,20.50
2023-03-28T09:24:25.479Z,20.30
2023-03-28T09:29:48.429Z,20.30
2023-03-28T09:34:58.460Z,20.40
2023-03-28T09:40:27.158Z,20.40
2023-03-28T09:46:07.009Z,20.40
2023-03-28T09:51:40.217Z,20.30
2023-03-28T09:56:50.690Z,20.30
2023-03-28T10:02:35.895Z,20.10
2023-03-28T10:07:53.679Z,20.00
2023-03-28T10:13:14.663Z,19.90
2023-03-28T10:18:35.235Z,19.90
2023-03-28T10:24:17.640Z,19.70
2023-03-28T10:29:31.997Z,19.60
2023-03-28T10:34:39.537Z,19.50
2023-03-28T10:40:25.699Z,19.50
2023-03-28T10:45:54.965Z,19.50
2023-03-28T10:51:29.623Z,19.40
2023-03-28T10:57:26.045Z,19.40
2023-03-28T11:03:18.497Z,19.30
2023-03-28T11:14:58.961Z,19.20
2023-03-28T11:20:56.805Z,19.30
2023-03-28T11:33:37.714Z,19.20
2023-03-28T11:39:17.042Z,19.30
2023-03-28T11:44:38.530Z,19.20
2023-03-28T11:49:53.263Z,19.20
2023-03-28T11:56:02.067Z,19.10
2023-03-28T12:01:36.660Z,19.10
2023-03-28T12:07:09.273Z,19.10
2023-03-28T12:12:40.297Z,19.10
2023-03-28T12:18:02.204Z,19.10
2023-03-28T12:23:52.884Z,19.10
2023-03-28T12:30:00.856Z,19.20
2023-03-28T12:36:03.572Z,19.10
2023-03-28T12:41:30.167Z,19.10
2023-03-28T12:47:28.356Z,19.10
2023-03-28T12:52:49.122Z,19.10
2023-03-28T12:58:25.583Z,19.10
2023-03-28T13:04:33.628Z,19.00
2023-03-28T13:10:09.597Z,19.10
2023-03-28T13:15:26.742Z,19.00
2023-03-28T13:20:53.927Z,18.90
2023-03-28T13:26:09.996Z,18.90
2023-03-28T13:31:35.187Z,18.90
2023-03-28T13:37:25.934Z,18.90
2023-03-28T13:43:11.476Z,18.90
2023-03-28T13:48:34.537Z,18.90
2023-03-28T13:53:48.690Z,18.90
2023-03-28T13:59:13.269Z,18.80
2023-03-28T14:04:31.965Z,18.70
2023-03-28T14:09:55.857Z,18.70
2023-03-28T14:15:05.755Z,18.70
2023-03-28T14:21:04.139Z,18.60
2023-03-28T14:26:35.040Z,18.60
2023-03-28T14:32:09.897Z,18.60
2023-03-28T14:37:32.866Z,18.60
2023-03-28T14:42:56.036Z,18.60
2023-03-28T14:48:09.726Z,18.50
2023-03-28T14:53:26.626Z,18.30
2023-03-28T14:58:34.555Z,18.30
2023-03-28T15:03:54.333Z,18.30
2023-03-28T15:09:15.646Z,18.30
2023-03-28T15:14:44.333Z,18.20
2023-03-28T15:20:02.553Z,18.10
2023-03-28T15:25:20.161Z,18.10
2023-03-28T15:30:27.994Z,18.10
2023-03-28T15:35:42.216Z,18.00
2023-03-28T15:40:55.503Z,18.00
2023-03-28T15:46:19.005Z,17.90
2023-03-28T15:51:25.675Z,17.90
2023-03-28T15:56:39.100Z,17.90
2023-03-28T16:01:47.257Z,17.80
2023-03-28T16:07:16.752Z,17.70
2023-03-28T16:12:29.004Z,17.60
2023-03-28T16:18:12.479Z,17.60
2023-03-28T16:23:30.392Z,17.40
2023-03-28T16:28:38.079Z,17.40
2023-03-28T16:34:26.261Z,17.60
2023-03-28T16:39:33.185Z,17.60
2023-03-28T16:44:40.539Z,17.40
2023-03-28T16:49:48.733Z,17.20
2023-03-28T16:54:55.589Z,17.30
2023-03-28T17:00:02.429Z,17.40
2023-03-28T17:05:10.202Z,17.60
2023-03-28T17:10:16.394Z,17.40
2023-03-28T17:15:23.698Z,17.40
2023-03-28T17:20:35.078Z,17.80
2023-03-28T17:25:54.854Z,17.70
2023-03-28T17:31:01.836Z,17.70
2023-03-28T17:36:22.496Z,17.70
2023-03-28T17:41:29.305Z,17.60
2023-03-28T17:46:35.594Z,17.20
2023-03-28T17:51:46.570Z,17.40
2023-03-28T17:56:53.113Z,17.50
2023-03-28T18:02:00.206Z,17.30
2023-03-28T18:07:15.914Z,17.20
2023-03-28T18:12:23.911Z,17.00
2023-03-28T18:17:30.296Z,17.40
2023-03-28T18:22:38.122Z,17.50
2023-03-28T18:27:44.058Z,17.50
2023-03-28T18:32:50.165Z,17.80
2023-03-28T18:37:55.569Z,17.70
2023-03-28T18:43:02.314Z,17.40
2023-03-28T18:48:10.335Z,17.40
2023-03-28T18:53:16.263Z,17.80
2023-03-28T18:58:24.957Z,18.20
2023-03-28T19:03:33.182Z,18.30
2023-03-28T19:08:39.254Z,17.80
2023-03-28T19:13:45.521Z,18.40
2023-03-28T19:18:52.401Z,18.50
2023-03-28T19:23:58.155Z,18.20
2023-03-28T19:29:03.448Z,17.80
2023-03-28T19:34:11.376Z,17.90
2023-03-28T19:39:17.207Z,17.70
2023-03-28T19:44:22.864Z,17.90
2023-03-28T19:49:28.447Z,17.90
2023-03-28T19:54:33.836Z,17.60
2023-03-28T19:59:39.164Z,17.60
2023-03-28T20:04:44.731Z,17.50
2023-03-28T20:09:50.804Z,17.80
2023-03-28T20:14:56.991Z,18.10
2023-03-28T20:20:03.274Z,17.90
2023-03-28T20:25:09.952Z,17.60
2023-03-28T20:30:16.357Z,17.10
2023-03-28T20:35:22.655Z,17.20
2023-03-28T20:40:31.890Z,17.30
2023-03-28T20:45:40.411Z,17.40
2023-03-28T20:50:49.033Z,17.20
2023-03-28T20:56:05.505Z,17.30
2023-03-28T21:01:13.973Z,17.30
2023-03-28T21:06:27.598Z,16.90
2023-03-28T21:11:36.610Z,17.20
2023-03-28T21:16:42.597Z,17.70
2023-03-28T21:21:48.709Z,17.80
2023-03-28T21:26:54.702Z,17.80
2023-03-28T21:32:00.599Z,17.60
2023-03-28T21:37:06.801Z,17.40
2023-03-28T21:42:13.011Z,17.70
2023-03-28T21:47:17.926Z,17.80
2023-03-28T21:52:23.631Z,17.90
2023-03-28T21:57:29.484Z,17.90
2023-03-28T22:02:35.237Z,18.00
2023-03-28T22:07:41.090Z,18.10
2023-03-28T22:12:47.931Z,18.10
2023-03-28T22:17:59.393Z,18.00
2023-03-28T22:23:05.900Z,17.90
2023-03-28T22:28:12.621Z,18.10
2023-03-28T22:33:20.828Z,18.20
2023-03-28T22:38:26.437Z,18.10
2023-03-28T22:43:34.716Z,18.00
2023-03-28T22:48:40.845Z,17.90
2023-03-28T22:53:47.082Z,17.90
2023-03-28T22:58:52.947Z,17.90
2023-03-28T23:03:58.498Z,17.90
2023-03-28T23:09:13.211Z,17.80
2023-03-28T23:14:23.788Z,17.70
2023-03-28T23:19:33.879Z,17.70
2023-03-28T23:24:39.412Z,17.70
2023-03-28T23:29:45.099Z,17.70
2023-03-28T23:34:50.707Z,17.80
2023-03-28T23:39:57.376Z,17.80
2023-03-28T23:45:03.207Z,17.90
2023-03-28T23:50:10.790Z,18.00
2023-03-28T23:55:16.751Z,18.20
